createdAt,value
2018-05-14T00:02:14.335Z,16.84
2018-05-14T00:04:46.830Z,16.81
2018-05-14T00:07:19.363Z,16.77
2018-05-14T00:09:51.853Z,16.68
2018-05-14T00:12:24.389Z,16.67
2018-05-14T00:14:56.901Z,16.66
2018-05-14T00:17:29.417Z,16.59
2018-05-14T00:20:01.921Z,16.53
2018-05-14T00:22:34.444Z,16.50
2018-05-14T00:25:06.946Z,16.44
2018-05-14T00:27:39.671Z,16.41
2018-05-14T00:30:12.172Z,16.42
2018-05-14T00:32:44.748Z,16.36
2018-05-14T00:35:17.279Z,16.32
2018-05-14T00:37:49.796Z,16.19
2018-05-14T00:40:22.352Z,16.17
2018-05-14T00:42:54.831Z,16.15
2018-05-14T00:45:27.325Z,16.07
2018-05-14T00:47:59.847Z,16.04
2018-05-14T00:50:32.355Z,16.03
2018-05-14T00:53:04.870Z,15.96
2018-05-14T00:55:37.469Z,15.87
2018-05-14T00:58:10.005Z,15.79
2018-05-14T01:00:42.720Z,15.78
2018-05-14T01:03:15.269Z,15.75
2018-05-14T01:05:47.769Z,15.74
2018-05-14T01:08:20.287Z,15.75
2018-05-14T01:10:52.786Z,15.71
2018-05-14T01:13:25.298Z,15.66
2018-05-14T01:15:57.797Z,15.62
2018-05-14T01:18:30.317Z,15.56
2018-05-14T01:21:02.812Z,15.54
2018-05-14T01:23:36.353Z,15.49
2018-05-14T01:26:08.956Z,15.40
2018-05-14T01:28:41.505Z,15.37
2018-05-14T01:31:14.011Z,15.44
2018-05-14T01:33:46.604Z,15.41
2018-05-14T01:36:19.101Z,15.39
2018-05-14T01:38:51.631Z,15.37
2018-05-14T01:41:24.125Z,15.36
2018-05-14T01:43:56.645Z,15.31
2018-05-14T01:46:29.149Z,15.25
2018-05-14T01:49:01.665Z,15.18
2018-05-14T01:51:34.165Z,15.14
2018-05-14T01:54:06.698Z,15.13
2018-05-14T01:56:39.214Z,15.14
2018-05-14T01:59:11.741Z,15.15
2018-05-14T02:01:44.241Z,15.12
2018-05-14T02:04:16.783Z,15.11
2018-05-14T02:06:49.386Z,15.10
2018-05-14T02:09:21.814Z,15.06
2018-05-14T02:11:54.339Z,15.03
2018-05-14T02:14:26.834Z,14.98
2018-05-14T02:16:59.365Z,14.96
2018-05-14T02:19:31.865Z,14.91
2018-05-14T02:22:04.390Z,14.87
2018-05-14T02:24:36.899Z,14.82
2018-05-14T02:27:09.432Z,14.80
2018-05-14T02:29:41.925Z,14.81
2018-05-14T02:32:14.446Z,14.78
2018-05-14T02:34:46.940Z,14.69
2018-05-14T02:37:19.464Z,14.63
2018-05-14T02:39:51.964Z,14.65
2018-05-14T02:42:25.572Z,14.64
2018-05-14T02:44:58.090Z,14.56
2018-05-14T02:47:30.624Z,14.56
2018-05-14T02:50:03.127Z,14.53
2018-05-14T02:52:35.657Z,14.53
2018-05-14T02:55:08.163Z,14.59
2018-05-14T02:57:40.699Z,14.57
2018-05-14T03:00:13.214Z,14.56
2018-05-14T03:02:45.749Z,14.51
2018-05-14T03:05:18.359Z,14.48
2018-05-14T03:07:50.882Z,14.46
2018-05-14T03:10:23.489Z,14.47
2018-05-14T03:12:55.976Z,14.46
2018-05-14T03:15:28.492Z,14.38
2018-05-14T03:18:01.018Z,14.33
2018-05-14T03:20:33.612Z,14.29
2018-05-14T03:23:06.083Z,14.26
2018-05-14T03:25:38.643Z,14.27
2018-05-14T03:28:11.224Z,14.31
2018-05-14T03:30:43.749Z,14.35
2018-05-14T03:33:16.300Z,14.33
2018-05-14T03:35:48.810Z,14.30
2018-05-14T03:38:21.327Z,14.27
2018-05-14T03:40:53.821Z,14.19
2018-05-14T03:43:26.366Z,14.22
2018-05-14T03:45:58.867Z,14.19
2018-05-14T03:48:31.395Z,14.17
2018-05-14T03:51:03.890Z,14.13
2018-05-14T03:53:36.796Z,14.20
2018-05-14T03:56:09.466Z,14.28
2018-05-14T03:58:54.030Z,14.29
2018-05-14T04:01:38.668Z,14.40
2018-05-14T04:04:22.965Z,14.44
2018-05-14T04:06:55.468Z,14.46
2018-05-14T04:09:27.988Z,14.45
2018-05-14T04:12:00.487Z,14.45
2018-05-14T04:14:33.005Z,14.41
2018-05-14T04:17:05.955Z,14.39
2018-05-14T04:19:38.509Z,14.39
2018-05-14T04:22:11.045Z,14.38
2018-05-14T04:24:43.573Z,14.35
2018-05-14T04:27:16.134Z,14.40
2018-05-14T04:29:48.659Z,14.45
2018-05-14T04:32:21.160Z,14.58
2018-05-14T04:34:53.692Z,14.74
2018-05-14T04:37:26.202Z,15.06
2018-05-14T04:39:58.737Z,15.28
2018-05-14T04:42:31.253Z,15.53
2018-05-14T04:45:03.873Z,15.78
2018-05-14T04:47:37.550Z,16.02
2018-05-14T04:50:10.091Z,16.33
2018-05-14T04:52:42.609Z,16.55
2018-05-14T04:55:15.129Z,16.91
2018-05-14T04:57:47.647Z,17.07
2018-05-14T05:00:20.163Z,17.26
2018-05-14T05:02:52.666Z,17.59
2018-05-14T05:05:25.184Z,17.83
2018-05-14T05:07:57.687Z,18.13
2018-05-14T05:10:30.302Z,18.56
2018-05-14T05:13:02.729Z,18.99
2018-05-14T05:15:36.517Z,19.32
2018-05-14T05:18:09.237Z,19.61
2018-05-14T05:20:41.791Z,19.76
2018-05-14T05:23:14.315Z,19.86
2018-05-14T05:25:46.827Z,20.03
2018-05-14T05:28:19.385Z,20.24
2018-05-14T05:30:51.881Z,20.44
2018-05-14T05:33:24.412Z,20.55
2018-05-14T05:35:56.928Z,20.70
2018-05-14T05:38:29.467Z,20.83
2018-05-14T05:41:01.994Z,21.03
2018-05-14T05:43:34.635Z,21.13
2018-05-14T05:46:07.621Z,21.41
2018-05-14T05:48:40.187Z,21.47
2018-05-14T05:51:12.685Z,21.59
2018-05-14T05:53:45.207Z,21.82
2018-05-14T05:56:17.714Z,21.99
2018-05-14T05:58:50.236Z,22.23
2018-05-14T06:01:22.830Z,22.36
2018-05-14T06:03:55.304Z,22.24
2018-05-14T06:06:27.795Z,22.50
2018-05-14T06:09:00.359Z,22.66
2018-05-14T06:11:32.861Z,22.85
2018-05-14T06:14:06.587Z,22.91
2018-05-14T06:16:39.121Z,23.02
2018-05-14T06:19:11.664Z,23.21
2018-05-14T06:21:44.172Z,23.34
2018-05-14T06:24:16.689Z,23.50
2018-05-14T06:26:49.195Z,23.50
2018-05-14T06:29:21.722Z,23.49
2018-05-14T06:31:54.217Z,23.64
2018-05-14T06:34:26.776Z,23.52
2018-05-14T06:36:59.252Z,23.55
2018-05-14T06:39:31.774Z,23.77
2018-05-14T06:42:04.287Z,23.74
2018-05-14T06:44:36.978Z,24.02
2018-05-14T06:47:09.491Z,24.61
2018-05-14T06:49:42.017Z,24.82
2018-05-14T06:52:14.526Z,24.70
2018-05-14T06:54:47.044Z,24.61
2018-05-14T06:57:19.551Z,24.86
2018-05-14T06:59:52.103Z,24.85
2018-05-14T07:02:24.605Z,25.34
2018-05-14T07:04:57.126Z,25.42
2018-05-14T07:07:29.624Z,25.51
2018-05-14T07:10:02.140Z,25.21
2018-05-14T07:12:34.684Z,25.03
2018-05-14T07:15:07.207Z,25.47
2018-05-14T07:17:39.719Z,25.79
2018-05-14T07:20:12.243Z,26.10
2018-05-14T07:22:44.739Z,26.36
2018-05-14T07:25:17.269Z,26.37
2018-05-14T07:27:49.880Z,26.35
2018-05-14T07:30:22.333Z,26.41
2018-05-14T07:32:54.839Z,26.45
2018-05-14T07:35:27.361Z,26.66
2018-05-14T07:37:59.882Z,26.94
2018-05-14T07:40:32.481Z,27.45
2018-05-14T07:43:05.178Z,27.68
2018-05-14T07:45:37.716Z,27.64
2018-05-14T07:48:10.298Z,27.79
2018-05-14T07:50:42.923Z,27.78
2018-05-14T07:53:15.437Z,27.78
2018-05-14T07:55:47.947Z,27.81
2018-05-14T07:58:20.457Z,28.01
2018-05-14T08:00:52.974Z,28.30
2018-05-14T08:03:25.480Z,28.41
2018-05-14T08:05:58.009Z,28.81
2018-05-14T08:08:30.513Z,28.92
2018-05-14T08:11:03.048Z,29.09
2018-05-14T08:13:35.585Z,29.25
2018-05-14T08:16:08.124Z,29.15
2018-05-14T08:18:40.634Z,28.83
2018-05-14T08:21:13.164Z,28.81
2018-05-14T08:23:45.669Z,28.94
2018-05-14T08:26:18.194Z,29.14
2018-05-14T08:28:50.702Z,29.40
2018-05-14T08:31:23.226Z,29.24
2018-05-14T08:33:55.735Z,29.37
2018-05-14T08:36:28.259Z,29.60
2018-05-14T08:39:00.765Z,29.80
2018-05-14T08:41:33.274Z,29.76
2018-05-14T08:44:05.817Z,29.94
2018-05-14T08:46:38.353Z,30.02
2018-05-14T08:49:11.498Z,30.45
2018-05-14T08:51:44.040Z,30.53
2018-05-14T08:54:16.672Z,30.53
2018-05-14T08:56:49.138Z,30.57
2018-05-14T08:59:21.653Z,30.45
2018-05-14T09:01:54.177Z,30.57
2018-05-14T09:04:26.702Z,30.71
2018-05-14T09:06:59.205Z,30.81
2018-05-14T09:09:31.725Z,30.57
2018-05-14T09:12:04.229Z,30.61
2018-05-14T09:14:37.389Z,30.73
2018-05-14T09:17:09.908Z,30.95
2018-05-14T09:19:42.660Z,31.49
2018-05-14T09:22:15.080Z,32.13
2018-05-14T09:24:47.613Z,33.27
2018-05-14T09:27:20.116Z,33.08
2018-05-14T09:29:52.637Z,33.32
2018-05-14T09:32:25.135Z,33.17
2018-05-14T09:34:57.661Z,33.36
2018-05-14T09:37:30.181Z,33.08
2018-05-14T09:40:02.707Z,32.80
2018-05-14T09:42:35.217Z,32.77
2018-05-14T09:45:07.800Z,32.54
2018-05-14T09:47:40.316Z,32.39
2018-05-14T09:50:12.992Z,31.83
2018-05-14T09:52:45.506Z,31.60
2018-05-14T09:55:18.028Z,31.60
2018-05-14T09:57:50.523Z,31.99
2018-05-14T10:00:23.044Z,32.06
2018-05-14T10:02:55.552Z,32.08
2018-05-14T10:05:28.071Z,31.83
2018-05-14T10:08:00.648Z,31.98
2018-05-14T10:10:33.116Z,31.95
2018-05-14T10:13:06.161Z,31.29
2018-05-14T10:15:38.896Z,31.20
2018-05-14T10:18:11.426Z,31.71
2018-05-14T10:20:43.952Z,31.96
2018-05-14T10:23:16.466Z,31.59
2018-05-14T10:25:48.991Z,31.25
2018-05-14T10:28:21.551Z,31.49
2018-05-14T10:30:54.045Z,31.24
2018-05-14T10:33:26.551Z,31.27
2018-05-14T10:35:59.093Z,31.47
2018-05-14T10:38:31.594Z,31.25
2018-05-14T10:41:04.148Z,30.64
2018-05-14T10:43:37.683Z,30.54
2018-05-14T10:46:10.251Z,30.10
2018-05-14T10:48:42.759Z,30.74
2018-05-14T10:51:15.287Z,31.49
2018-05-14T10:53:47.801Z,30.81
2018-05-14T10:56:20.632Z,31.04
2018-05-14T10:58:53.132Z,31.01
2018-05-14T11:01:25.663Z,31.04
2018-05-14T11:03:58.177Z,31.18
2018-05-14T11:06:30.722Z,31.47
2018-05-14T11:09:03.224Z,31.69
2018-05-14T11:11:37.272Z,31.89
2018-05-14T11:14:09.891Z,31.36
2018-05-14T11:16:42.423Z,31.45
2018-05-14T11:19:14.937Z,31.43
2018-05-14T11:21:47.464Z,31.80
2018-05-14T11:24:20.806Z,31.63
2018-05-14T11:26:53.351Z,31.54
2018-05-14T11:29:25.849Z,31.86
2018-05-14T11:31:58.367Z,32.31
2018-05-14T11:34:30.879Z,31.57
2018-05-14T11:37:03.422Z,31.66
2018-05-14T11:39:35.957Z,32.06
2018-05-14T11:42:09.076Z,31.60
2018-05-14T11:44:41.604Z,31.24
2018-05-14T11:47:14.199Z,31.30
2018-05-14T11:49:46.726Z,31.29
2018-05-14T11:52:19.303Z,31.05
2018-05-14T11:54:51.819Z,30.72
2018-05-14T11:57:24.336Z,31.04
2018-05-14T11:59:56.841Z,31.58
2018-05-14T12:02:29.364Z,31.51
2018-05-14T12:05:01.869Z,31.22
2018-05-14T12:07:34.418Z,31.43
2018-05-14T12:10:07.053Z,31.48
2018-05-14T12:12:41.879Z,30.98
2018-05-14T12:15:14.377Z,31.02
2018-05-14T12:17:46.907Z,31.03
2018-05-14T12:20:19.440Z,31.30
2018-05-14T12:22:51.958Z,31.14
2018-05-14T12:25:24.515Z,30.84
2018-05-14T12:27:57.029Z,30.59
2018-05-14T12:30:29.569Z,30.71
2018-05-14T12:33:02.084Z,30.84
2018-05-14T12:35:34.709Z,30.65
2018-05-14T12:38:07.808Z,30.70
2018-05-14T12:40:40.410Z,31.14
2018-05-14T12:43:12.968Z,31.04
2018-05-14T12:45:45.485Z,31.31
2018-05-14T12:48:18.037Z,30.97
2018-05-14T12:50:50.732Z,30.89
2018-05-14T12:53:23.243Z,30.77
2018-05-14T12:55:55.764Z,30.81
2018-05-14T12:58:28.257Z,30.80
2018-05-14T13:01:00.783Z,30.93
2018-05-14T13:03:33.287Z,30.68
2018-05-14T13:06:05.861Z,30.95
2018-05-14T13:08:38.441Z,30.80
2018-05-14T13:11:11.116Z,30.76
2018-05-14T13:13:44.432Z,30.77
2018-05-14T13:16:16.967Z,30.65
2018-05-14T13:18:49.465Z,30.51
2018-05-14T13:21:21.978Z,30.90
2018-05-14T13:23:54.479Z,31.16
2018-05-14T13:26:27.008Z,30.75
2018-05-14T13:28:59.508Z,30.35
2018-05-14T13:31:32.028Z,30.17
2018-05-14T13:34:04.573Z,30.00
2018-05-14T13:36:38.764Z,30.08
2018-05-14T13:39:11.285Z,30.02
2018-05-14T13:41:43.844Z,29.62
2018-05-14T13:44:16.385Z,29.71
2018-05-14T13:46:48.913Z,29.39
2018-05-14T13:49:21.419Z,29.57
2018-05-14T13:51:53.940Z,29.27
2018-05-14T13:54:26.444Z,29.00
2018-05-14T13:56:59.015Z,28.93
2018-05-14T13:59:31.509Z,28.97
2018-05-14T14:02:04.035Z,28.98
2018-05-14T14:04:36.587Z,29.43
2018-05-14T14:07:09.395Z,29.56
2018-05-14T14:09:42.219Z,29.26
2018-05-14T14:12:14.824Z,28.72
2018-05-14T14:14:48.050Z,28.51
2018-05-14T14:17:20.577Z,28.59
2018-05-14T14:19:53.093Z,28.60
2018-05-14T14:22:25.612Z,28.64
2018-05-14T14:24:58.119Z,28.94
2018-05-14T14:27:30.645Z,29.27
2018-05-14T14:30:03.159Z,29.39
2018-05-14T14:32:35.718Z,29.31
2018-05-14T14:35:08.251Z,29.61
2018-05-14T14:37:40.790Z,29.75
2018-05-14T14:40:14.293Z,29.92
2018-05-14T14:42:46.891Z,29.34
2018-05-14T14:45:19.421Z,29.20
2018-05-14T14:47:51.950Z,29.19
2018-05-14T14:50:24.452Z,29.20
2018-05-14T14:52:57.009Z,29.27
2018-05-14T14:55:29.507Z,29.49
2018-05-14T14:58:02.024Z,29.45
2018-05-14T15:00:34.524Z,29.31
2018-05-14T15:03:07.057Z,29.25
2018-05-14T15:05:39.616Z,29.25
2018-05-14T15:08:12.159Z,29.16
2018-05-14T15:10:44.655Z,28.99
2018-05-14T15:13:17.168Z,29.09
2018-05-14T15:15:49.688Z,28.99
2018-05-14T15:18:22.208Z,28.93
2018-05-14T15:20:54.812Z,28.75
2018-05-14T15:23:27.333Z,28.89
2018-05-14T15:25:59.849Z,28.68
2018-05-14T15:28:32.372Z,28.73
2018-05-14T15:31:07.658Z,28.64
2018-05-14T15:33:40.325Z,28.73
2018-05-14T15:36:13.039Z,28.74
2018-05-14T15:38:45.763Z,28.74
2018-05-14T15:41:18.479Z,28.68
2018-05-14T15:43:50.973Z,28.65
2018-05-14T15:46:23.477Z,28.55
2018-05-14T15:48:56.002Z,28.34
2018-05-14T15:51:28.522Z,28.61
2018-05-14T15:54:01.053Z,28.78
2018-05-14T15:56:33.616Z,28.56
2018-05-14T15:59:06.191Z,28.37
2018-05-14T16:01:39.130Z,28.50
2018-05-14T16:04:11.733Z,28.57
2018-05-14T16:06:44.595Z,28.53
2018-05-14T16:09:17.239Z,28.15
2018-05-14T16:11:49.767Z,28.27
2018-05-14T16:14:22.283Z,28.19
2018-05-14T16:16:54.801Z,27.99
2018-05-14T16:19:27.329Z,28.27
2018-05-14T16:21:59.857Z,28.15
2018-05-14T16:24:32.358Z,28.14
2018-05-14T16:27:05.214Z,28.15
2018-05-14T16:29:37.807Z,28.15
2018-05-14T16:32:10.483Z,28.21
2018-05-14T16:34:43.090Z,28.01
2018-05-14T16:37:15.619Z,28.08
2018-05-14T16:39:48.130Z,28.14
2018-05-14T16:42:20.660Z,27.93
2018-05-14T16:44:53.153Z,28.18
2018-05-14T16:47:25.676Z,27.94
2018-05-14T16:49:58.181Z,27.88
2018-05-14T16:52:31.519Z,28.00
2018-05-14T16:55:04.029Z,28.02
2018-05-14T16:57:36.610Z,28.03
2018-05-14T17:00:09.105Z,28.01
2018-05-14T17:02:41.701Z,28.03
2018-05-14T17:05:14.202Z,28.15
2018-05-14T17:07:47.704Z,28.11
2018-05-14T17:10:20.464Z,28.06
2018-05-14T17:12:53.018Z,27.97
2018-05-14T17:15:25.525Z,27.86
2018-05-14T17:17:58.091Z,27.53
2018-05-14T17:20:30.597Z,27.74
2018-05-14T17:23:03.134Z,28.04
2018-05-14T17:25:36.787Z,27.85
2018-05-14T17:28:09.530Z,27.62
2018-05-14T17:30:42.031Z,27.57
2018-05-14T17:33:14.554Z,27.28
2018-05-14T17:35:47.062Z,27.14
2018-05-14T17:38:19.579Z,27.08
2018-05-14T17:40:52.090Z,26.87
2018-05-14T17:43:24.650Z,26.79
2018-05-14T17:45:57.153Z,26.79
2018-05-14T17:48:29.814Z,26.79
2018-05-14T17:51:02.497Z,26.78
2018-05-14T17:53:35.066Z,26.74
2018-05-14T17:56:07.872Z,26.55
2018-05-14T17:58:40.435Z,26.46
2018-05-14T18:01:13.113Z,26.57
2018-05-14T18:03:45.637Z,26.43
2018-05-14T18:06:18.142Z,26.27
2018-05-14T18:08:50.666Z,26.16
2018-05-14T18:11:23.168Z,26.26
2018-05-14T18:13:55.701Z,26.12
2018-05-14T18:16:28.213Z,26.13
2018-05-14T18:19:00.823Z,26.05
2018-05-14T18:21:38.458Z,26.02
2018-05-14T18:24:11.026Z,26.03
2018-05-14T18:26:46.469Z,25.94
2018-05-14T18:29:24.700Z,25.78
2018-05-14T18:31:57.218Z,25.73
2018-05-14T18:34:35.801Z,25.63
2018-05-14T18:37:08.353Z,25.51
2018-05-14T18:39:41.001Z,25.43
2018-05-14T18:42:13.621Z,25.37
2018-05-14T18:44:46.172Z,25.21
2018-05-14T18:47:18.870Z,25.24
2018-05-14T18:49:51.412Z,25.30
2018-05-14T18:52:23.913Z,25.22
2018-05-14T18:54:56.460Z,25.14
2018-05-14T18:57:28.974Z,25.01
2018-05-14T19:00:01.544Z,24.88
2018-05-14T19:02:34.046Z,24.89
2018-05-14T19:05:07.069Z,24.79
2018-05-14T19:07:39.659Z,24.65
2018-05-14T19:10:17.866Z,24.51
2018-05-14T19:12:50.405Z,24.49
2018-05-14T19:15:28.607Z,24.30
2018-05-14T19:18:01.137Z,24.31
2018-05-14T19:20:33.669Z,24.29
2018-05-14T19:23:11.797Z,24.21
2018-05-14T19:25:44.328Z,24.08
2018-05-14T19:31:27.044Z,23.63
2018-05-14T19:34:05.655Z,23.58
2018-05-14T19:36:38.187Z,23.39
2018-05-14T19:39:10.726Z,23.06
2018-05-14T19:41:43.255Z,23.00
2018-05-14T19:44:15.818Z,22.91
2018-05-14T19:46:48.324Z,22.94
2018-05-14T19:49:20.950Z,22.95
2018-05-14T19:51:53.408Z,22.91
2018-05-14T19:54:25.946Z,22.81
2018-05-14T19:56:58.451Z,22.71
2018-05-14T19:59:30.969Z,22.56
2018-05-14T20:02:03.484Z,22.59
2018-05-14T20:04:36.810Z,22.53
2018-05-14T20:07:09.645Z,22.51
2018-05-14T20:09:42.201Z,22.41
2018-05-14T20:12:14.758Z,22.37
2018-05-14T20:14:47.298Z,22.39
2018-05-14T20:17:19.796Z,22.32
2018-05-14T20:19:52.326Z,22.28
2018-05-14T20:22:24.832Z,22.27
2018-05-14T20:24:57.698Z,22.09
2018-05-14T20:27:30.241Z,22.01
2018-05-14T20:30:03.049Z,21.95
2018-05-14T20:32:35.642Z,21.86
2018-05-14T20:35:08.182Z,21.77
2018-05-14T20:37:41.005Z,21.70
2018-05-14T20:40:13.892Z,21.59
2018-05-14T20:42:47.626Z,21.48
2018-05-14T20:45:20.221Z,21.44
2018-05-14T20:47:52.722Z,21.35
2018-05-14T20:50:25.245Z,21.27
2018-05-14T20:52:57.748Z,21.15
2018-05-14T20:55:30.269Z,21.07
2018-05-14T20:58:02.774Z,20.94
2018-05-14T21:00:35.917Z,20.77
2018-05-14T21:03:08.437Z,20.79
2018-05-14T21:05:41.003Z,20.73
2018-05-14T21:08:13.553Z,20.78
2018-05-14T21:10:46.110Z,20.56
2018-05-14T21:13:18.643Z,20.59
2018-05-14T21:15:51.180Z,20.50
2018-05-14T21:18:23.738Z,20.37
2018-05-14T21:20:56.256Z,20.20
2018-05-14T21:23:28.777Z,20.10
2018-05-14T21:26:01.302Z,19.95
2018-05-14T21:28:33.799Z,19.80
2018-05-14T21:31:07.161Z,19.59
2018-05-14T21:33:39.825Z,19.47
2018-05-14T21:36:12.395Z,19.44
2018-05-14T21:38:45.288Z,19.47
2018-05-14T21:41:17.813Z,19.43
2018-05-14T21:43:50.393Z,19.42
2018-05-14T21:46:22.976Z,19.29
2018-05-14T21:48:55.492Z,19.08
2018-05-14T21:51:27.996Z,18.96
2018-05-14T21:54:00.524Z,18.90
2018-05-14T21:56:33.016Z,18.85
2018-05-14T21:59:06.049Z,18.78
2018-05-14T22:01:39.230Z,18.75
2018-05-14T22:04:11.768Z,18.70
2018-05-14T22:06:44.280Z,18.54
2018-05-14T22:11:55.671Z,18.36
2018-05-14T22:14:28.227Z,18.27
2018-05-14T22:17:00.746Z,18.27
2018-05-14T22:19:33.277Z,18.16
2018-05-14T22:22:06.749Z,18.16
2018-05-14T22:24:39.343Z,18.07
2018-05-14T22:27:11.928Z,18.05
2018-05-14T22:29:44.505Z,17.96
2018-05-14T22:32:17.027Z,17.98
2018-05-14T22:34:49.585Z,17.94
2018-05-14T22:37:22.220Z,17.84
2018-05-14T22:39:54.759Z,17.76
2018-05-14T22:42:27.306Z,17.67
2018-05-14T22:44:59.867Z,17.56
2018-05-14T22:47:32.384Z,17.43
2018-05-14T22:50:05.269Z,17.32
2018-05-14T22:52:37.856Z,17.34
2018-05-14T22:55:10.462Z,17.31
2018-05-14T22:57:43.037Z,17.23
2018-05-14T23:00:20.358Z,17.07
2018-05-14T23:02:52.882Z,17.07
2018-05-14T23:05:25.413Z,16.99
2018-05-14T23:07:57.937Z,16.96
2018-05-14T23:10:30.482Z,16.92
2018-05-14T23:13:03.009Z,16.87
2018-05-14T23:15:35.680Z,16.76
2018-05-14T23:18:08.209Z,16.70
2018-05-14T23:20:40.792Z,16.72
2018-05-14T23:23:13.318Z,16.70
2018-05-14T23:25:45.874Z,16.68
2018-05-14T23:28:18.395Z,16.60
2018-05-14T23:30:50.987Z,16.52
2018-05-14T23:33:23.494Z,16.45
2018-05-14T23:35:56.037Z,16.38
2018-05-14T23:38:28.558Z,16.29
2018-05-14T23:41:01.990Z,16.27
2018-05-14T23:43:34.552Z,16.21
2018-05-14T23:46:07.133Z,16.20
2018-05-14T23:48:39.658Z,16.17
2018-05-14T23:51:12.195Z,16.23
2018-05-14T23:53:44.707Z,16.21
2018-05-14T23:56:17.259Z,16.10
2018-05-14T23:58:49.773Z,16.03
